createdAt,value
2023-03-26T00:02:13.948Z,13.70
2023-03-26T00:04:44.202Z,13.70
2023-03-26T00:07:13.149Z,13.70
2023-03-26T00:09:41.317Z,13.70
2023-03-26T00:12:09.931Z,13.60
2023-03-26T00:14:38.453Z,13.70
2023-03-26T00:17:06.382Z,13.60
2023-03-26T00:19:36.751Z,13.60
2023-03-26T00:22:04.832Z,13.60
2023-03-26T00:24:33.080Z,13.60
2023-03-26T00:27:01.439Z,13.60
2023-03-26T00:29:33.722Z,13.60
2023-03-26T00:32:02.279Z,13.60
2023-03-26T00:34:31.400Z,13.60
2023-03-26T00:37:02.943Z,13.50
2023-03-26T00:39:36.120Z,13.50
2023-03-26T00:42:07.370Z,13.50
2023-03-26T00:44:35.798Z,13.50
2023-03-26T00:47:04.667Z,13.50
2023-03-26T00:49:32.933Z,13.50
2023-03-26T00:52:03.445Z,13.50
2023-03-26T00:54:34.723Z,13.50
2023-03-26T00:57:03.041Z,13.40
2023-03-26T00:59:32.301Z,13.40
2023-03-26T01:02:00.746Z,13.40
2023-03-26T01:04:35.055Z,13.40
2023-03-26T01:07:23.094Z,13.40
2023-03-26T01:09:51.754Z,13.40
2023-03-26T01:12:21.126Z,13.40
2023-03-26T01:14:53.041Z,13.40
2023-03-26T01:17:22.411Z,13.30
2023-03-26T01:19:50.910Z,13.30
2023-03-26T01:22:23.376Z,13.30
2023-03-26T01:24:56.874Z,13.30
2023-03-26T01:27:26.188Z,13.20
2023-03-26T01:29:59.712Z,13.20
2023-03-26T01:32:46.310Z,13.20
2023-03-26T01:35:17.780Z,13.20
2023-03-26T01:37:47.248Z,13.20
2023-03-26T01:40:43.250Z,13.10
2023-03-26T01:43:14.580Z,13.20
2023-03-26T01:45:45.192Z,13.10
2023-03-26T01:48:13.833Z,13.00
2023-03-26T01:50:44.905Z,13.00
2023-03-26T01:53:14.167Z,13.00
2023-03-26T01:55:50.154Z,13.00
2023-03-26T01:58:28.037Z,12.90
2023-03-26T02:01:02.594Z,12.90
2023-03-26T02:03:32.805Z,12.90
2023-03-26T02:06:03.651Z,12.90
2023-03-26T02:08:41.790Z,12.90
2023-03-26T02:11:11.947Z,12.80
2023-03-26T02:13:41.028Z,12.80
2023-03-26T02:16:10.371Z,12.80
2023-03-26T02:18:39.431Z,12.70
2023-03-26T02:21:12.876Z,12.70
2023-03-26T02:23:45.218Z,12.60
2023-03-26T02:26:14.840Z,12.60
2023-03-26T02:28:58.302Z,12.60
2023-03-26T02:31:26.915Z,12.60
2023-03-26T02:33:56.019Z,12.60
2023-03-26T02:36:27.694Z,12.70
2023-03-26T02:39:00.688Z,12.70
2023-03-26T02:41:31.820Z,12.70
2023-03-26T02:44:11.616Z,12.70
2023-03-26T02:46:57.940Z,12.70
2023-03-26T02:49:48.715Z,12.70
2023-03-26T02:52:36.591Z,12.70
2023-03-26T02:55:07.153Z,12.70
2023-03-26T02:57:36.106Z,12.70
2023-03-26T03:00:14.711Z,12.70
2023-03-26T03:02:49.520Z,12.70
2023-03-26T03:05:47.647Z,12.70
2023-03-26T03:08:36.368Z,12.70
2023-03-26T03:11:30.981Z,12.70
2023-03-26T03:14:01.323Z,12.70
2023-03-26T03:16:31.862Z,12.70
2023-03-26T03:19:06.574Z,12.70
2023-03-26T03:21:39.492Z,12.60
2023-03-26T03:24:09.138Z,12.70
2023-03-26T03:26:42.737Z,12.60
2023-03-26T03:29:19.987Z,12.60
2023-03-26T03:31:48.924Z,12.60
2023-03-26T03:34:38.977Z,12.60
2023-03-26T03:37:07.756Z,12.60
2023-03-26T03:39:43.864Z,12.60
2023-03-26T03:42:14.288Z,12.50
2023-03-26T03:44:43.194Z,12.50
2023-03-26T03:47:26.288Z,12.50
2023-03-26T03:49:54.463Z,12.50
2023-03-26T03:52:22.876Z,12.40
2023-03-26T03:54:51.573Z,12.40
2023-03-26T03:57:33.739Z,12.40
2023-03-26T04:00:12.264Z,12.40
2023-03-26T04:02:46.671Z,12.40
2023-03-26T04:05:17.499Z,12.40
2023-03-26T04:07:49.235Z,12.30
2023-03-26T04:10:29.179Z,12.40
2023-03-26T04:13:08.354Z,12.30
2023-03-26T04:15:57.224Z,12.30
2023-03-26T04:18:26.842Z,12.30
2023-03-26T04:20:56.800Z,12.30
2023-03-26T04:23:29.809Z,12.20
2023-03-26T04:26:05.762Z,12.20
2023-03-26T04:29:01.438Z,12.20
2023-03-26T04:31:31.790Z,12.20
2023-03-26T04:34:06.748Z,12.30
2023-03-26T04:36:46.700Z,12.30
2023-03-26T04:39:16.903Z,12.30
2023-03-26T04:42:03.194Z,12.30
2023-03-26T04:44:42.836Z,12.30
2023-03-26T04:47:13.794Z,12.30
2023-03-26T04:49:47.833Z,12.40
2023-03-26T04:52:17.186Z,12.40
2023-03-26T04:55:17.334Z,12.40
2023-03-26T04:57:50.793Z,12.40
2023-03-26T05:00:44.897Z,12.50
2023-03-26T05:03:13.694Z,12.70
2023-03-26T05:05:44.013Z,12.80
2023-03-26T05:08:12.928Z,12.90
2023-03-26T05:10:41.987Z,13.00
2023-03-26T05:13:17.281Z,13.00
2023-03-26T05:15:50.985Z,13.10
2023-03-26T05:18:34.884Z,13.10
2023-03-26T05:21:03.913Z,13.20
2023-03-26T05:23:32.947Z,13.20
2023-03-26T05:26:16.975Z,13.40
2023-03-26T05:28:45.988Z,13.70
2023-03-26T05:31:21.786Z,13.90
2023-03-26T05:33:55.449Z,14.10
2023-03-26T05:36:26.465Z,14.30
2023-03-26T05:39:05.567Z,14.70
2023-03-26T05:41:53.360Z,15.00
2023-03-26T05:44:29.187Z,15.40
2023-03-26T05:46:57.841Z,15.70
2023-03-26T05:49:27.057Z,15.90
2023-03-26T05:51:55.734Z,15.90
2023-03-26T05:54:47.118Z,15.90
2023-03-26T05:57:44.844Z,15.70
2023-03-26T06:00:34.191Z,15.40
2023-03-26T06:03:02.542Z,15.30
2023-03-26T06:06:04.394Z,15.20
2023-03-26T06:09:02.073Z,15.40
2023-03-26T06:11:32.992Z,15.60
2023-03-26T06:14:03.523Z,15.90
2023-03-26T06:16:32.678Z,16.20
2023-03-26T06:19:18.787Z,16.60
2023-03-26T06:21:53.399Z,17.00
2023-03-26T06:24:25.112Z,17.20
2023-03-26T06:27:12.016Z,17.40
2023-03-26T06:29:58.507Z,17.80
2023-03-26T06:32:46.797Z,18.10
2023-03-26T06:35:20.268Z,18.40
2023-03-26T06:37:48.964Z,18.70
2023-03-26T06:40:17.165Z,19.00
2023-03-26T06:43:09.008Z,19.40
2023-03-26T06:46:02.119Z,19.80
2023-03-26T06:48:40.682Z,20.30
2023-03-26T06:51:29.032Z,20.70
2023-03-26T06:54:09.706Z,21.10
2023-03-26T06:57:10.659Z,21.40
2023-03-26T07:00:14.569Z,21.80
2023-03-26T07:03:03.425Z,22.10
2023-03-26T07:05:50.376Z,22.40
2023-03-26T07:08:38.098Z,22.70
2023-03-26T07:11:35.758Z,23.10
2023-03-26T07:14:22.317Z,23.60
2023-03-26T07:17:09.498Z,23.90
2023-03-26T07:19:53.800Z,24.30
2023-03-26T07:22:28.830Z,24.70
2023-03-26T07:25:16.369Z,25.10
2023-03-26T07:28:12.271Z,25.20
2023-03-26T07:31:07.817Z,25.50
2023-03-26T07:33:47.392Z,26.10
2023-03-26T07:36:28.767Z,26.50
2023-03-26T07:39:27.299Z,27.10
2023-03-26T07:42:30.723Z,27.60
2023-03-26T07:45:36.737Z,28.00
2023-03-26T07:48:27.691Z,28.40
2023-03-26T07:51:14.516Z,28.90
2023-03-26T07:54:01.465Z,29.10
2023-03-26T07:57:12.287Z,29.50
2023-03-26T08:00:01.775Z,30.00
2023-03-26T08:03:03.273Z,30.40
2023-03-26T08:06:01.232Z,30.70
2023-03-26T08:08:50.998Z,29.40
2023-03-26T08:11:56.206Z,27.80
2023-03-26T08:14:30.719Z,26.60
2023-03-26T08:17:16.727Z,26.50
2023-03-26T08:19:45.242Z,26.50
2023-03-26T08:22:32.049Z,26.90
2023-03-26T08:25:18.214Z,27.20
2023-03-26T08:28:11.308Z,26.60
2023-03-26T08:30:39.393Z,26.30
2023-03-26T08:33:07.492Z,27.00
2023-03-26T08:35:35.862Z,27.00
2023-03-26T08:38:06.312Z,27.50
2023-03-26T08:40:34.546Z,27.40
2023-03-26T08:43:21.377Z,27.20
2023-03-26T08:45:51.910Z,26.70
2023-03-26T08:48:25.943Z,26.50
2023-03-26T08:50:54.235Z,27.10
2023-03-26T08:53:37.962Z,27.80
2023-03-26T08:56:20.974Z,27.20
2023-03-26T08:59:11.847Z,27.80
2023-03-26T09:01:58.605Z,27.90
2023-03-26T09:04:29.374Z,28.00
2023-03-26T09:07:07.350Z,29.10
2023-03-26T09:09:38.732Z,28.60
2023-03-26T09:12:13.125Z,27.10
2023-03-26T09:14:44.439Z,27.00
2023-03-26T09:17:13.979Z,27.20
2023-03-26T09:20:01.041Z,28.60
2023-03-26T09:22:47.828Z,30.00
2023-03-26T09:25:35.680Z,29.00
2023-03-26T09:28:23.195Z,27.40
2023-03-26T09:31:10.005Z,26.60
2023-03-26T09:33:59.773Z,28.80
2023-03-26T09:36:41.544Z,28.90
2023-03-26T09:39:37.909Z,28.10
2023-03-26T09:42:28.929Z,28.90
2023-03-26T09:45:17.868Z,29.50
2023-03-26T09:48:06.021Z,30.40
2023-03-26T09:50:39.921Z,31.60
2023-03-26T09:53:27.437Z,31.40
2023-03-26T09:56:07.626Z,32.50
2023-03-26T09:58:48.888Z,33.30
2023-03-26T10:01:17.134Z,33.20
2023-03-26T10:03:53.157Z,31.80
2023-03-26T10:06:26.438Z,29.80
2023-03-26T10:09:12.869Z,28.20
2023-03-26T10:11:53.260Z,25.50
2023-03-26T10:14:26.516Z,27.20
2023-03-26T10:17:20.767Z,29.70
2023-03-26T10:19:49.008Z,27.60
2023-03-26T10:22:23.429Z,27.80
2023-03-26T10:25:10.362Z,27.20
2023-03-26T10:27:38.361Z,28.80
2023-03-26T10:30:15.539Z,29.60
2023-03-26T10:32:45.808Z,30.40
2023-03-26T10:35:32.757Z,31.50
2023-03-26T10:38:15.125Z,31.50
2023-03-26T10:40:46.753Z,30.00
2023-03-26T10:43:33.355Z,29.70
2023-03-26T10:46:16.801Z,29.90
2023-03-26T10:48:45.139Z,30.00
2023-03-26T10:51:26.258Z,28.90
2023-03-26T10:54:17.133Z,29.40
2023-03-26T10:56:46.638Z,28.30
2023-03-26T10:59:16.243Z,27.30
2023-03-26T11:02:05.571Z,27.30
2023-03-26T11:04:53.593Z,28.30
2023-03-26T11:07:40.285Z,28.80
2023-03-26T11:10:31.640Z,28.00
2023-03-26T11:13:04.840Z,29.10
2023-03-26T11:15:38.167Z,29.50
2023-03-26T11:18:06.473Z,30.00
2023-03-26T11:20:53.621Z,29.60
2023-03-26T11:24:05.420Z,29.80
2023-03-26T11:26:56.077Z,31.20
2023-03-26T11:29:30.948Z,30.50
2023-03-26T11:32:11.500Z,30.40
2023-03-26T11:34:47.467Z,29.80
2023-03-26T11:37:35.850Z,29.90
2023-03-26T11:40:08.738Z,30.40
2023-03-26T11:42:37.356Z,31.10
2023-03-26T11:45:16.986Z,31.30
2023-03-26T11:47:57.999Z,30.80
2023-03-26T11:50:27.888Z,32.30
2023-03-26T11:53:03.747Z,31.40
2023-03-26T11:55:32.091Z,30.00
2023-03-26T11:58:01.913Z,28.70
2023-03-26T12:00:30.773Z,29.40
2023-03-26T12:02:59.720Z,30.40
2023-03-26T12:05:47.140Z,30.00
2023-03-26T12:08:22.079Z,30.60
2023-03-26T12:11:04.218Z,31.60
2023-03-26T12:13:38.328Z,31.10
2023-03-26T12:16:11.164Z,30.60
2023-03-26T12:18:41.474Z,31.30
2023-03-26T12:21:11.693Z,31.80
2023-03-26T12:23:44.325Z,31.40
2023-03-26T12:26:18.189Z,30.90
2023-03-26T12:28:47.286Z,31.60
2023-03-26T12:31:19.605Z,32.10
2023-03-26T12:34:08.167Z,31.40
2023-03-26T12:36:36.974Z,30.50
2023-03-26T12:40:10.276Z,30.70
2023-03-26T12:44:44.347Z,30.70
2023-03-26T12:45:38.366Z,31.60
2023-03-26T12:48:08.351Z,32.30
2023-03-26T12:50:52.999Z,31.60
2023-03-26T12:53:24.338Z,30.80
2023-03-26T12:56:07.846Z,30.60
2023-03-26T12:59:02.153Z,30.60
2023-03-26T13:01:38.796Z,30.90
2023-03-26T13:04:22.306Z,30.80
2023-03-26T13:07:13.846Z,30.80
2023-03-26T13:09:52.771Z,30.00
2023-03-26T13:12:21.249Z,31.00
2023-03-26T13:14:56.904Z,31.60
2023-03-26T13:17:34.160Z,31.40
2023-03-26T13:20:12.601Z,31.40
2023-03-26T13:22:47.042Z,30.80
2023-03-26T13:25:15.342Z,31.30
2023-03-26T13:27:55.507Z,32.00
2023-03-26T13:30:29.750Z,31.00
2023-03-26T13:33:01.906Z,30.30
2023-03-26T13:35:33.583Z,30.10
2023-03-26T13:38:11.758Z,30.90
2023-03-26T13:40:48.016Z,32.50
2023-03-26T13:43:22.694Z,34.00
2023-03-26T13:45:56.695Z,34.90
2023-03-26T13:48:27.622Z,35.40
2023-03-26T13:51:02.514Z,35.80
2023-03-26T13:53:38.199Z,36.00
2023-03-26T13:56:07.344Z,36.10
2023-03-26T13:58:38.468Z,36.10
2023-03-26T14:01:18.692Z,36.30
2023-03-26T14:03:49.970Z,36.20
2023-03-26T14:06:36.905Z,36.40
2023-03-26T14:09:12.129Z,36.20
2023-03-26T14:11:50.857Z,36.00
2023-03-26T14:14:24.148Z,35.80
2023-03-26T14:16:55.222Z,35.80
2023-03-26T14:19:36.454Z,35.70
2023-03-26T14:22:23.109Z,35.50
2023-03-26T14:25:09.938Z,35.50
2023-03-26T14:27:41.348Z,35.30
2023-03-26T14:30:12.755Z,35.10
2023-03-26T14:32:44.442Z,34.90
2023-03-26T14:35:20.708Z,34.60
2023-03-26T14:38:04.084Z,34.30
2023-03-26T14:40:48.450Z,34.30
2023-03-26T14:43:25.661Z,34.10
2023-03-26T14:46:12.425Z,33.90
2023-03-26T14:49:03.486Z,33.80
2023-03-26T14:51:31.616Z,33.60
2023-03-26T14:54:09.116Z,33.20
2023-03-26T14:56:44.002Z,32.80
2023-03-26T14:59:22.080Z,32.70
2023-03-26T15:01:50.125Z,32.50
2023-03-26T15:04:18.261Z,32.30
2023-03-26T15:06:52.484Z,32.20
2023-03-26T15:09:20.976Z,32.10
2023-03-26T15:11:49.070Z,31.80
2023-03-26T15:14:23.258Z,31.70
2023-03-26T15:17:02.186Z,31.50
2023-03-26T15:19:48.917Z,31.30
2023-03-26T15:22:32.185Z,31.20
2023-03-26T15:25:06.364Z,31.00
2023-03-26T15:27:34.361Z,30.90
2023-03-26T15:30:02.547Z,30.70
2023-03-26T15:32:53.098Z,30.40
2023-03-26T15:35:57.723Z,30.30
2023-03-26T15:38:47.195Z,30.10
2023-03-26T15:41:22.427Z,29.80
2023-03-26T15:44:22.840Z,29.40
2023-03-26T15:46:48.454Z,29.10
2023-03-26T15:49:27.486Z,28.70
2023-03-26T15:52:14.519Z,28.40
2023-03-26T15:55:08.932Z,28.00
2023-03-26T15:57:42.405Z,27.70
2023-03-26T16:00:23.068Z,27.40
2023-03-26T16:03:10.037Z,27.20
2023-03-26T16:05:56.781Z,27.00
2023-03-26T16:08:27.899Z,26.80
2023-03-26T16:10:57.341Z,26.40
2023-03-26T16:13:26.534Z,26.00
2023-03-26T16:16:11.360Z,25.60
2023-03-26T16:18:43.720Z,25.20
2023-03-26T16:21:31.328Z,24.80
2023-03-26T16:24:03.644Z,24.50
2023-03-26T16:26:53.476Z,24.20
2023-03-26T16:29:30.619Z,23.90
2023-03-26T16:32:01.675Z,23.60
2023-03-26T16:34:42.509Z,23.40
2023-03-26T16:37:40.295Z,23.20
2023-03-26T16:40:26.719Z,22.90
2023-03-26T16:42:57.933Z,22.50
2023-03-26T16:45:34.298Z,22.30
2023-03-26T16:48:05.411Z,22.10
2023-03-26T16:50:55.756Z,21.80
2023-03-26T16:53:24.171Z,21.60
2023-03-26T16:56:26.662Z,21.50
2023-03-26T16:59:21.010Z,21.50
2023-03-26T17:01:57.015Z,21.30
2023-03-26T17:04:29.654Z,21.00
2023-03-26T17:07:02.085Z,20.90
2023-03-26T17:09:34.410Z,21.00
2023-03-26T17:12:14.731Z,20.80
2023-03-26T17:15:00.409Z,20.50
2023-03-26T17:17:37.253Z,20.50
2023-03-26T17:20:14.436Z,20.60
2023-03-26T17:22:52.570Z,20.30
2023-03-26T17:25:43.080Z,20.10
2023-03-26T17:28:41.013Z,20.10
2023-03-26T17:31:17.243Z,20.20
2023-03-26T17:33:46.535Z,19.80
2023-03-26T17:36:16.596Z,19.60
2023-03-26T17:38:47.902Z,19.70
2023-03-26T17:41:36.075Z,19.80
2023-03-26T17:44:24.208Z,19.70
2023-03-26T17:46:52.779Z,19.30
2023-03-26T17:49:31.407Z,19.10
2023-03-26T17:52:38.173Z,19.30
2023-03-26T17:55:08.579Z,19.40
2023-03-26T17:57:44.359Z,19.40
2023-03-26T18:00:18.829Z,19.40
2023-03-26T18:02:57.868Z,19.40
2023-03-26T18:05:29.548Z,19.40
2023-03-26T18:08:00.580Z,19.40
2023-03-26T18:10:47.362Z,19.30
2023-03-26T18:13:18.585Z,19.20
2023-03-26T18:15:46.853Z,19.10
2023-03-26T18:18:21.055Z,19.00
2023-03-26T18:20:52.634Z,18.90
2023-03-26T18:23:22.773Z,18.90
2023-03-26T18:25:55.427Z,18.80
2023-03-26T18:28:29.983Z,18.70
2023-03-26T18:31:07.119Z,18.60
2023-03-26T18:33:45.633Z,18.60
2023-03-26T18:36:18.953Z,18.50
2023-03-26T18:38:49.334Z,18.30
2023-03-26T18:41:22.552Z,18.30
2023-03-26T18:43:50.771Z,18.20
2023-03-26T18:46:23.554Z,18.00
2023-03-26T18:48:51.892Z,18.00
2023-03-26T18:51:23.455Z,17.90
2023-03-26T18:53:54.483Z,17.80
2023-03-26T18:56:32.113Z,17.70
2023-03-26T18:59:01.279Z,17.50
2023-03-26T19:01:31.181Z,17.40
2023-03-26T19:04:04.252Z,17.20
2023-03-26T19:06:36.416Z,17.10
2023-03-26T19:09:23.750Z,17.00
2023-03-26T19:11:57.677Z,17.00
2023-03-26T19:14:26.728Z,16.90
2023-03-26T19:17:00.003Z,16.90
2023-03-26T19:19:37.891Z,16.80
2023-03-26T19:22:08.765Z,16.70
2023-03-26T19:24:39.652Z,16.60
2023-03-26T19:27:10.185Z,16.50
2023-03-26T19:29:38.691Z,16.40
2023-03-26T19:32:17.968Z,16.30
2023-03-26T19:34:47.293Z,16.20
2023-03-26T19:37:21.998Z,16.20
2023-03-26T19:39:54.271Z,16.10
2023-03-26T19:42:26.893Z,16.10
2023-03-26T19:45:16.652Z,16.10
2023-03-26T19:47:48.697Z,16.10
2023-03-26T19:50:30.525Z,16.20
2023-03-26T19:53:22.908Z,16.10
2023-03-26T19:55:57.771Z,16.00
2023-03-26T19:58:28.929Z,15.90
2023-03-26T20:01:00.055Z,15.80
2023-03-26T20:03:38.422Z,15.80
2023-03-26T20:06:09.357Z,15.80
2023-03-26T20:08:37.568Z,15.70
2023-03-26T20:11:05.739Z,15.70
2023-03-26T20:13:34.745Z,15.60
2023-03-26T20:16:07.651Z,15.50
2023-03-26T20:18:35.881Z,15.40
2023-03-26T20:21:09.555Z,15.50
2023-03-26T20:23:37.935Z,15.40
2023-03-26T20:26:06.364Z,15.40
2023-03-26T20:28:47.822Z,15.30
2023-03-26T20:31:18.248Z,15.20
2023-03-26T20:33:48.921Z,15.10
2023-03-26T20:36:34.147Z,15.10
2023-03-26T20:39:06.270Z,15.00
2023-03-26T20:41:39.394Z,15.00
2023-03-26T20:44:15.891Z,14.90
2023-03-26T20:46:44.607Z,14.90
2023-03-26T20:49:13.135Z,14.90
2023-03-26T20:51:46.059Z,14.70
2023-03-26T20:54:16.241Z,14.70
2023-03-26T20:56:44.625Z,14.70
2023-03-26T20:59:15.118Z,14.60
2023-03-26T21:01:43.363Z,14.60
2023-03-26T21:04:12.114Z,14.60
2023-03-26T21:06:43.734Z,14.40
2023-03-26T21:09:16.360Z,14.30
2023-03-26T21:11:47.088Z,14.40
2023-03-26T21:14:26.033Z,14.40
2023-03-26T21:16:54.503Z,14.30
2023-03-26T21:19:22.736Z,14.30
2023-03-26T21:22:11.033Z,14.20
2023-03-26T21:24:45.553Z,14.20
2023-03-26T21:27:23.183Z,14.10
2023-03-26T21:29:54.573Z,14.10
2023-03-26T21:32:23.094Z,13.90
2023-03-26T21:34:58.657Z,13.90
2023-03-26T21:37:28.005Z,13.80
2023-03-26T21:39:56.280Z,13.70
2023-03-26T21:42:27.195Z,13.70
2023-03-26T21:44:55.816Z,13.60
2023-03-26T21:47:23.924Z,13.50
2023-03-26T21:49:52.768Z,13.50
2023-03-26T21:52:23.037Z,13.50
2023-03-26T21:54:51.435Z,13.40
2023-03-26T21:57:29.510Z,13.30
2023-03-26T22:00:12.045Z,13.30
2023-03-26T22:02:48.061Z,13.20
2023-03-26T22:05:16.362Z,13.20
2023-03-26T22:07:56.966Z,13.20
2023-03-26T22:10:25.321Z,13.10
2023-03-26T22:12:53.257Z,13.10
2023-03-26T22:15:22.264Z,13.10
2023-03-26T22:17:56.495Z,13.00
2023-03-26T22:20:25.513Z,13.00
2023-03-26T22:22:56.371Z,12.90
2023-03-26T22:25:24.616Z,12.90
2023-03-26T22:27:53.093Z,12.90
2023-03-26T22:30:21.535Z,12.90
2023-03-26T22:32:50.538Z,12.90
2023-03-26T22:35:18.872Z,12.90
2023-03-26T22:37:48.079Z,12.80
2023-03-26T22:40:16.602Z,12.70
2023-03-26T22:42:45.033Z,12.70
2023-03-26T22:45:13.165Z,12.70
2023-03-26T22:47:45.309Z,12.60
2023-03-26T22:50:13.709Z,12.60
2023-03-26T22:52:42.040Z,12.50
2023-03-26T22:55:11.414Z,12.50
2023-03-26T22:57:40.164Z,12.40
2023-03-26T23:00:19.841Z,12.40
2023-03-26T23:02:48.985Z,12.40
2023-03-26T23:05:19.974Z,12.30
2023-03-26T23:07:49.373Z,12.30
2023-03-26T23:10:17.623Z,12.20
2023-03-26T23:12:46.060Z,12.30
2023-03-26T23:15:15.063Z,12.20
2023-03-26T23:17:43.298Z,12.30
2023-03-26T23:20:17.624Z,12.20
2023-03-26T23:22:46.204Z,12.10
2023-03-26T23:25:14.208Z,12.10
2023-03-26T23:27:42.582Z,12.10
2023-03-26T23:30:11.321Z,12.10
2023-03-26T23:32:39.576Z,12.10
2023-03-26T23:35:11.584Z,12.00
2023-03-26T23:37:42.718Z,12.00
2023-03-26T23:40:11.327Z,11.90
2023-03-26T23:42:39.346Z,11.90
2023-03-26T23:45:08.823Z,11.90
2023-03-26T23:47:37.685Z,11.80
2023-03-26T23:50:08.465Z,11.80
2023-03-26T23:52:37.986Z,11.80
2023-03-26T23:55:06.477Z,11.80
2023-03-26T23:57:34.575Z,11.70
